sensor_id;sensor_type;location;lat;lon;timestamp;temperature;humidity
22974;DHT22;11653;50.848;4.584;2023-07-31T00:00:28;18.20;99.90
22974;DHT22;11653;50.848;4.584;2023-07-31T00:02:54;18.20;99.90
22974;DHT22;11653;50.848;4.584;2023-07-31T00:05:20;18.30;99.90
22974;DHT22;11653;50.848;4.584;2023-07-31T00:07:46;18.30;99.90
22974;DHT22;11653;50.848;4.584;2023-07-31T00:10:12;18.30;99.90
22974;DHT22;11653;50.848;4.584;2023-07-31T00:12:39;18.30;99.90
22974;DHT22;11653;50.848;4.584;2023-07-31T00:15:06;18.30;99.90
22974;DHT22;11653;50.848;4.584;2023-07-31T00:17:32;18.30;99.90
22974;DHT22;11653;50.848;4.584;2023-07-31T00:19:58;18.30;99.90
22974;DHT22;11653;50.848;4.584;2023-07-31T00:22:23;18.30;99.90
22974;DHT22;11653;50.848;4.584;2023-07-31T00:24:49;18.30;99.90
22974;DHT22;11653;50.848;4.584;2023-07-31T00:27:15;18.30;99.90
22974;DHT22;11653;50.848;4.584;2023-07-31T00:29:41;18.40;99.90
22974;DHT22;11653;50.848;4.584;2023-07-31T00:32:07;18.40;99.90
22974;DHT22;11653;50.848;4.584;2023-07-31T00:34:32;18.40;99.90
22974;DHT22;11653;50.848;4.584;2023-07-31T00:36:58;18.40;99.90
22974;DHT22;11653;50.848;4.584;2023-07-31T00:39:24;18.40;99.90
22974;DHT22;11653;50.848;4.584;2023-07-31T00:41:49;18.40;99.90
22974;DHT22;11653;50.848;4.584;2023-07-31T00:44:15;18.50;99.90
22974;DHT22;11653;50.848;4.584;2023-07-31T00:46:41;18.50;99.90
22974;DHT22;11653;50.848;4.584;2023-07-31T00:49:06;18.50;99.90
22974;DHT22;11653;50.848;4.584;2023-07-31T00:51:33;18.50;99.90
22974;DHT22;11653;50.848;4.584;2023-07-31T00:53:58;18.60;99.90
22974;DHT22;11653;50.848;4.584;2023-07-31T00:56:25;18.60;99.90
22974;DHT22;11653;50.848;4.584;2023-07-31T00:58:51;18.50;99.90
22974;DHT22;11653;50.848;4.584;2023-07-31T01:01:16;18.50;99.90
22974;DHT22;11653;50.848;4.584;2023-07-31T01:03:42;18.60;99.90
22974;DHT22;11653;50.848;4.584;2023-07-31T01:06:15;18.60;99.90
22974;DHT22;11653;50.848;4.584;2023-07-31T01:11:25;18.50;99.90
22974;DHT22;11653;50.848;4.584;2023-07-31T01:13:54;18.50;99.90
22974;DHT22;11653;50.848;4.584;2023-07-31T01:16:20;18.40;99.90
22974;DHT22;11653;50.848;4.584;2023-07-31T01:18:45;18.40;99.90
22974;DHT22;11653;50.848;4.584;2023-07-31T01:24:30;18.30;99.90
22974;DHT22;11653;50.848;4.584;2023-07-31T01:27:06;18.30;99.90
22974;DHT22;11653;50.848;4.584;2023-07-31T01:30:09;18.30;99.90
22974;DHT22;11653;50.848;4.584;2023-07-31T01:32:40;18.20;99.90
22974;DHT22;11653;50.848;4.584;2023-07-31T01:35:07;18.30;99.90
22974;DHT22;11653;50.848;4.584;2023-07-31T01:37:34;18.30;99.90
22974;DHT22;11653;50.848;4.584;2023-07-31T01:39:59;18.30;99.90
22974;DHT22;11653;50.848;4.584;2023-07-31T01:42:25;18.40;99.90
22974;DHT22;11653;50.848;4.584;2023-07-31T01:44:51;18.40;99.90
22974;DHT22;11653;50.848;4.584;2023-07-31T01:47:17;18.40;99.90
22974;DHT22;11653;50.848;4.584;2023-07-31T01:49:42;18.30;99.90
22974;DHT22;11653;50.848;4.584;2023-07-31T01:52:08;18.40;99.90
22974;DHT22;11653;50.848;4.584;2023-07-31T01:54:33;18.50;99.90
22974;DHT22;11653;50.848;4.584;2023-07-31T01:56:59;18.50;99.90
22974;DHT22;11653;50.848;4.584;2023-07-31T01:59:25;18.50;99.90
22974;DHT22;11653;50.848;4.584;2023-07-31T02:01:51;18.50;99.90
22974;DHT22;11653;50.848;4.584;2023-07-31T02:04:16;18.50;99.90
22974;DHT22;11653;50.848;4.584;2023-07-31T02:06:43;18.50;99.90
22974;DHT22;11653;50.848;4.584;2023-07-31T02:09:09;18.60;99.90
22974;DHT22;11653;50.848;4.584;2023-07-31T02:11:34;18.70;99.90
22974;DHT22;11653;50.848;4.584;2023-07-31T02:14:00;18.70;99.90
22974;DHT22;11653;50.848;4.584;2023-07-31T02:16:26;18.60;99.90
22974;DHT22;11653;50.848;4.584;2023-07-31T02:18:51;18.60;99.90
22974;DHT22;11653;50.848;4.584;2023-07-31T02:21:17;18.60;99.90
22974;DHT22;11653;50.848;4.584;2023-07-31T02:23:43;18.60;99.90
22974;DHT22;11653;50.848;4.584;2023-07-31T02:26:08;18.50;99.90
22974;DHT22;11653;50.848;4.584;2023-07-31T02:28:34;18.60;99.90
22974;DHT22;11653;50.848;4.584;2023-07-31T02:31:00;18.60;99.90
22974;DHT22;11653;50.848;4.584;2023-07-31T02:33:25;18.70;99.90
22974;DHT22;11653;50.848;4.584;2023-07-31T02:35:51;18.60;99.90
22974;DHT22;11653;50.848;4.584;2023-07-31T02:38:17;18.60;99.90
22974;DHT22;11653;50.848;4.584;2023-07-31T02:40:42;18.60;99.90
22974;DHT22;11653;50.848;4.584;2023-07-31T02:43:08;18.60;99.90
22974;DHT22;11653;50.848;4.584;2023-07-31T02:45:34;18.70;99.90
22974;DHT22;11653;50.848;4.584;2023-07-31T02:48:00;18.80;99.90
22974;DHT22;11653;50.848;4.584;2023-07-31T02:50:25;18.70;99.90
22974;DHT22;11653;50.848;4.584;2023-07-31T02:52:53;18.70;99.90
22974;DHT22;11653;50.848;4.584;2023-07-31T02:55:18;18.60;99.90
22974;DHT22;11653;50.848;4.584;2023-07-31T02:57:44;18.80;99.90
22974;DHT22;11653;50.848;4.584;2023-07-31T03:00:10;18.80;99.90
22974;DHT22;11653;50.848;4.584;2023-07-31T03:02:35;18.80;99.90
22974;DHT22;11653;50.848;4.584;2023-07-31T03:05:01;18.90;99.90
22974;DHT22;11653;50.848;4.584;2023-07-31T03:07:27;18.90;99.90
22974;DHT22;11653;50.848;4.584;2023-07-31T03:09:52;18.90;99.90
22974;DHT22;11653;50.848;4.584;2023-07-31T03:12:18;18.90;99.90
22974;DHT22;11653;50.848;4.584;2023-07-31T03:14:45;18.90;99.90
22974;DHT22;11653;50.848;4.584;2023-07-31T03:17:10;18.80;99.90
22974;DHT22;11653;50.848;4.584;2023-07-31T03:19:36;18.70;99.90
22974;DHT22;11653;50.848;4.584;2023-07-31T03:22:01;18.70;99.90
22974;DHT22;11653;50.848;4.584;2023-07-31T03:24:28;18.70;99.90
22974;DHT22;11653;50.848;4.584;2023-07-31T03:26:54;18.80;99.90
22974;DHT22;11653;50.848;4.584;2023-07-31T03:29:20;18.80;99.90
22974;DHT22;11653;50.848;4.584;2023-07-31T03:31:46;18.90;99.90
22974;DHT22;11653;50.848;4.584;2023-07-31T03:34:11;18.80;99.90
22974;DHT22;11653;50.848;4.584;2023-07-31T03:36:37;18.80;99.90
22974;DHT22;11653;50.848;4.584;2023-07-31T03:39:02;18.70;99.90
22974;DHT22;11653;50.848;4.584;2023-07-31T03:41:28;18.90;99.90
22974;DHT22;11653;50.848;4.584;2023-07-31T03:43:54;18.90;99.90
22974;DHT22;11653;50.848;4.584;2023-07-31T03:46:23;18.80;99.90
22974;DHT22;11653;50.848;4.584;2023-07-31T03:48:49;18.80;99.90
22974;DHT22;11653;50.848;4.584;2023-07-31T03:51:15;18.90;99.90
22974;DHT22;11653;50.848;4.584;2023-07-31T03:53:42;18.80;99.90
22974;DHT22;11653;50.848;4.584;2023-07-31T03:56:07;18.90;99.90
22974;DHT22;11653;50.848;4.584;2023-07-31T03:58:33;18.80;99.90
22974;DHT22;11653;50.848;4.584;2023-07-31T04:01:00;18.80;99.90
22974;DHT22;11653;50.848;4.584;2023-07-31T04:03:26;18.90;99.90
22974;DHT22;11653;50.848;4.584;2023-07-31T04:05:53;18.90;99.90
22974;DHT22;11653;50.848;4.584;2023-07-31T04:08:19;19.00;99.90
22974;DHT22;11653;50.848;4.584;2023-07-31T04:10:44;19.00;99.90
22974;DHT22;11653;50.848;4.584;2023-07-31T04:13:10;19.00;99.90
22974;DHT22;11653;50.848;4.584;2023-07-31T04:15:36;18.90;99.90
22974;DHT22;11653;50.848;4.584;2023-07-31T04:18:01;18.80;99.90
22974;DHT22;11653;50.848;4.584;2023-07-31T04:20:27;18.70;99.90
22974;DHT22;11653;50.848;4.584;2023-07-31T04:22:52;18.70;99.90
22974;DHT22;11653;50.848;4.584;2023-07-31T04:25:18;18.80;99.90
22974;DHT22;11653;50.848;4.584;2023-07-31T04:27:44;18.80;99.90
22974;DHT22;11653;50.848;4.584;2023-07-31T04:30:09;18.70;99.90
22974;DHT22;11653;50.848;4.584;2023-07-31T04:32:35;18.70;99.90
22974;DHT22;11653;50.848;4.584;2023-07-31T04:35:01;18.60;99.90
22974;DHT22;11653;50.848;4.584;2023-07-31T04:37:27;18.60;99.90
22974;DHT22;11653;50.848;4.584;2023-07-31T04:39:52;18.60;99.90
22974;DHT22;11653;50.848;4.584;2023-07-31T04:42:18;18.70;99.90
22974;DHT22;11653;50.848;4.584;2023-07-31T04:44:44;18.60;99.90
22974;DHT22;11653;50.848;4.584;2023-07-31T04:47:10;18.60;99.90
22974;DHT22;11653;50.848;4.584;2023-07-31T04:49:35;18.60;99.90
22974;DHT22;11653;50.848;4.584;2023-07-31T04:52:01;18.70;99.90
22974;DHT22;11653;50.848;4.584;2023-07-31T04:54:26;18.70;99.90
22974;DHT22;11653;50.848;4.584;2023-07-31T04:56:52;18.70;99.90
22974;DHT22;11653;50.848;4.584;2023-07-31T04:59:18;18.80;99.90
22974;DHT22;11653;50.848;4.584;2023-07-31T05:01:43;18.80;99.90
22974;DHT22;11653;50.848;4.584;2023-07-31T05:04:13;18.70;99.90
22974;DHT22;11653;50.848;4.584;2023-07-31T05:06:39;18.80;99.90
22974;DHT22;11653;50.848;4.584;2023-07-31T05:09:05;18.70;99.90
22974;DHT22;11653;50.848;4.584;2023-07-31T05:11:31;18.70;99.90
22974;DHT22;11653;50.848;4.584;2023-07-31T05:13:56;18.60;99.90
22974;DHT22;11653;50.848;4.584;2023-07-31T05:16:22;18.70;99.90
22974;DHT22;11653;50.848;4.584;2023-07-31T05:18:47;18.60;99.90
22974;DHT22;11653;50.848;4.584;2023-07-31T05:21:13;18.60;99.90
22974;DHT22;11653;50.848;4.584;2023-07-31T05:23:39;18.50;99.90
22974;DHT22;11653;50.848;4.584;2023-07-31T05:26:05;18.50;99.90
22974;DHT22;11653;50.848;4.584;2023-07-31T05:28:31;18.50;99.90
22974;DHT22;11653;50.848;4.584;2023-07-31T05:31:01;18.50;99.90
22974;DHT22;11653;50.848;4.584;2023-07-31T05:33:27;18.50;99.90
22974;DHT22;11653;50.848;4.584;2023-07-31T05:35:53;18.40;99.90
22974;DHT22;11653;50.848;4.584;2023-07-31T05:38:18;18.30;99.90
22974;DHT22;11653;50.848;4.584;2023-07-31T05:40:44;18.30;99.90
22974;DHT22;11653;50.848;4.584;2023-07-31T05:43:09;18.30;99.90
22974;DHT22;11653;50.848;4.584;2023-07-31T05:45:36;18.30;99.90
22974;DHT22;11653;50.848;4.584;2023-07-31T05:48:02;18.30;99.90
22974;DHT22;11653;50.848;4.584;2023-07-31T05:50:28;18.40;99.90
22974;DHT22;11653;50.848;4.584;2023-07-31T05:52:54;18.50;99.90
22974;DHT22;11653;50.848;4.584;2023-07-31T05:55:20;18.40;99.90
22974;DHT22;11653;50.848;4.584;2023-07-31T05:57:46;18.30;99.90
22974;DHT22;11653;50.848;4.584;2023-07-31T06:00:13;18.30;99.90
22974;DHT22;11653;50.848;4.584;2023-07-31T06:02:39;18.30;99.90
22974;DHT22;11653;50.848;4.584;2023-07-31T06:05:05;18.30;99.90
22974;DHT22;11653;50.848;4.584;2023-07-31T06:07:32;18.30;99.90
22974;DHT22;11653;50.848;4.584;2023-07-31T06:09:57;18.30;99.90
22974;DHT22;11653;50.848;4.584;2023-07-31T06:12:30;18.30;99.90
22974;DHT22;11653;50.848;4.584;2023-07-31T06:14:56;18.30;99.90
22974;DHT22;11653;50.848;4.584;2023-07-31T06:17:22;18.30;99.90
22974;DHT22;11653;50.848;4.584;2023-07-31T06:19:48;18.40;99.90
22974;DHT22;11653;50.848;4.584;2023-07-31T06:22:14;18.30;99.90
22974;DHT22;11653;50.848;4.584;2023-07-31T06:24:40;18.30;99.90
22974;DHT22;11653;50.848;4.584;2023-07-31T06:27:06;18.30;99.90
22974;DHT22;11653;50.848;4.584;2023-07-31T06:29:32;18.30;99.90
22974;DHT22;11653;50.848;4.584;2023-07-31T06:31:58;18.40;99.90
22974;DHT22;11653;50.848;4.584;2023-07-31T06:34:23;18.40;99.90
22974;DHT22;11653;50.848;4.584;2023-07-31T06:36:49;18.40;99.90
22974;DHT22;11653;50.848;4.584;2023-07-31T06:39:15;18.40;99.90
22974;DHT22;11653;50.848;4.584;2023-07-31T06:41:41;18.50;99.90
22974;DHT22;11653;50.848;4.584;2023-07-31T06:44:07;18.60;99.90
22974;DHT22;11653;50.848;4.584;2023-07-31T06:46:32;18.60;99.90
22974;DHT22;11653;50.848;4.584;2023-07-31T06:48:58;18.60;99.90
22974;DHT22;11653;50.848;4.584;2023-07-31T06:51:24;18.70;99.90
22974;DHT22;11653;50.848;4.584;2023-07-31T06:53:50;18.60;99.90
22974;DHT22;11653;50.848;4.584;2023-07-31T06:56:15;18.70;99.90
22974;DHT22;11653;50.848;4.584;2023-07-31T06:58:41;18.80;99.90
22974;DHT22;11653;50.848;4.584;2023-07-31T07:01:07;18.60;99.90
22974;DHT22;11653;50.848;4.584;2023-07-31T07:03:33;18.80;99.90
22974;DHT22;11653;50.848;4.584;2023-07-31T07:05:58;19.10;99.90
22974;DHT22;11653;50.848;4.584;2023-07-31T07:08:24;19.20;99.90
22974;DHT22;11653;50.848;4.584;2023-07-31T07:10:50;19.30;99.90
22974;DHT22;11653;50.848;4.584;2023-07-31T07:13:16;19.40;99.90
22974;DHT22;11653;50.848;4.584;2023-07-31T07:15:47;19.50;99.90
22974;DHT22;11653;50.848;4.584;2023-07-31T07:18:13;19.60;99.90
22974;DHT22;11653;50.848;4.584;2023-07-31T07:20:39;19.60;99.90
22974;DHT22;11653;50.848;4.584;2023-07-31T07:23:05;19.60;99.90
22974;DHT22;11653;50.848;4.584;2023-07-31T07:25:31;19.60;99.90
22974;DHT22;11653;50.848;4.584;2023-07-31T07:27:57;19.80;99.90
22974;DHT22;11653;50.848;4.584;2023-07-31T07:30:22;20.00;99.90
22974;DHT22;11653;50.848;4.584;2023-07-31T07:32:50;20.00;99.90
22974;DHT22;11653;50.848;4.584;2023-07-31T07:35:16;20.10;99.90
22974;DHT22;11653;50.848;4.584;2023-07-31T07:37:41;20.20;99.90
22974;DHT22;11653;50.848;4.584;2023-07-31T07:40:08;20.30;99.90
22974;DHT22;11653;50.848;4.584;2023-07-31T07:42:33;20.30;99.90
22974;DHT22;11653;50.848;4.584;2023-07-31T07:44:59;20.20;99.90
22974;DHT22;11653;50.848;4.584;2023-07-31T07:47:25;20.30;99.90
22974;DHT22;11653;50.848;4.584;2023-07-31T07:49:50;20.10;99.90
22974;DHT22;11653;50.848;4.584;2023-07-31T07:52:16;20.10;99.90
22974;DHT22;11653;50.848;4.584;2023-07-31T07:54:42;20.10;99.90
22974;DHT22;11653;50.848;4.584;2023-07-31T07:57:08;20.10;99.90
22974;DHT22;11653;50.848;4.584;2023-07-31T07:59:34;20.20;99.90
22974;DHT22;11653;50.848;4.584;2023-07-31T08:01:59;20.30;99.90
22974;DHT22;11653;50.848;4.584;2023-07-31T08:04:25;20.30;99.90
22974;DHT22;11653;50.848;4.584;2023-07-31T08:06:51;20.40;99.90
22974;DHT22;11653;50.848;4.584;2023-07-31T08:09:17;20.30;99.90
22974;DHT22;11653;50.848;4.584;2023-07-31T08:11:42;20.40;99.90
22974;DHT22;11653;50.848;4.584;2023-07-31T08:14:08;20.30;99.90
22974;DHT22;11653;50.848;4.584;2023-07-31T08:16:33;20.30;99.90
22974;DHT22;11653;50.848;4.584;2023-07-31T08:18:59;20.40;99.90
22974;DHT22;11653;50.848;4.584;2023-07-31T08:21:25;20.50;99.90
22974;DHT22;11653;50.848;4.584;2023-07-31T08:23:50;20.40;99.90
22974;DHT22;11653;50.848;4.584;2023-07-31T08:26:17;20.30;99.90
22974;DHT22;11653;50.848;4.584;2023-07-31T08:28:43;20.20;99.90
22974;DHT22;11653;50.848;4.584;2023-07-31T08:31:09;20.20;99.90
22974;DHT22;11653;50.848;4.584;2023-07-31T08:33:34;20.40;99.90
22974;DHT22;11653;50.848;4.584;2023-07-31T08:36:00;20.40;99.90
22974;DHT22;11653;50.848;4.584;2023-07-31T08:38:27;20.40;99.90
22974;DHT22;11653;50.848;4.584;2023-07-31T08:40:52;20.40;99.90
22974;DHT22;11653;50.848;4.584;2023-07-31T08:43:20;20.30;99.90
22974;DHT22;11653;50.848;4.584;2023-07-31T08:45:48;20.30;99.90
22974;DHT22;11653;50.848;4.584;2023-07-31T08:48:15;20.40;99.90
22974;DHT22;11653;50.848;4.584;2023-07-31T08:50:42;20.30;99.90
22974;DHT22;11653;50.848;4.584;2023-07-31T08:53:08;20.30;99.90
22974;DHT22;11653;50.848;4.584;2023-07-31T08:55:35;20.30;99.90
22974;DHT22;11653;50.848;4.584;2023-07-31T08:58:03;20.30;99.90
22974;DHT22;11653;50.848;4.584;2023-07-31T09:00:30;20.40;99.90
22974;DHT22;11653;50.848;4.584;2023-07-31T09:03:03;20.30;99.90
22974;DHT22;11653;50.848;4.584;2023-07-31T09:05:35;20.20;99.90
22974;DHT22;11653;50.848;4.584;2023-07-31T09:08:02;20.20;99.90
22974;DHT22;11653;50.848;4.584;2023-07-31T09:10:30;20.20;99.90
22974;DHT22;11653;50.848;4.584;2023-07-31T09:12:56;20.10;99.90
22974;DHT22;11653;50.848;4.584;2023-07-31T09:15:23;20.20;99.90
22974;DHT22;11653;50.848;4.584;2023-07-31T09:18:01;20.10;99.90
22974;DHT22;11653;50.848;4.584;2023-07-31T09:20:27;20.20;99.90
22974;DHT22;11653;50.848;4.584;2023-07-31T09:22:55;20.20;99.90
22974;DHT22;11653;50.848;4.584;2023-07-31T09:25:25;20.20;99.90
22974;DHT22;11653;50.848;4.584;2023-07-31T09:30:19;20.40;99.90
22974;DHT22;11653;50.848;4.584;2023-07-31T09:32:46;20.40;99.90
22974;DHT22;11653;50.848;4.584;2023-07-31T09:37:41;20.50;99.90
22974;DHT22;11653;50.848;4.584;2023-07-31T09:40:07;20.60;99.90
22974;DHT22;11653;50.848;4.584;2023-07-31T09:42:34;20.60;99.90
22974;DHT22;11653;50.848;4.584;2023-07-31T09:45:09;20.90;99.90
22974;DHT22;11653;50.848;4.584;2023-07-31T09:47:35;21.20;99.90
22974;DHT22;11653;50.848;4.584;2023-07-31T09:50:01;21.20;99.90
22974;DHT22;11653;50.848;4.584;2023-07-31T09:52:27;21.10;99.90
22974;DHT22;11653;50.848;4.584;2023-07-31T09:54:53;21.10;99.90
22974;DHT22;11653;50.848;4.584;2023-07-31T09:57:21;21.10;99.90
22974;DHT22;11653;50.848;4.584;2023-07-31T09:59:48;21.00;99.90
22974;DHT22;11653;50.848;4.584;2023-07-31T10:02:22;21.00;99.90
22974;DHT22;11653;50.848;4.584;2023-07-31T10:04:50;21.20;99.90
22974;DHT22;11653;50.848;4.584;2023-07-31T10:07:18;21.30;99.90
22974;DHT22;11653;50.848;4.584;2023-07-31T10:09:44;21.40;99.90
22974;DHT22;11653;50.848;4.584;2023-07-31T10:12:12;21.40;99.90
22974;DHT22;11653;50.848;4.584;2023-07-31T10:14:41;21.40;99.90
22974;DHT22;11653;50.848;4.584;2023-07-31T10:17:08;21.60;99.90
22974;DHT22;11653;50.848;4.584;2023-07-31T10:19:35;21.70;99.90
22974;DHT22;11653;50.848;4.584;2023-07-31T10:22:02;21.80;99.90
22974;DHT22;11653;50.848;4.584;2023-07-31T10:24:29;22.00;99.90
22974;DHT22;11653;50.848;4.584;2023-07-31T10:26:57;22.00;99.90
22974;DHT22;11653;50.848;4.584;2023-07-31T10:29:24;22.00;99.90
22974;DHT22;11653;50.848;4.584;2023-07-31T10:31:51;22.00;99.90
22974;DHT22;11653;50.848;4.584;2023-07-31T10:34:17;22.40;99.90
22974;DHT22;11653;50.848;4.584;2023-07-31T10:36:43;22.80;99.90
22974;DHT22;11653;50.848;4.584;2023-07-31T10:39:44;23.10;99.90
22974;DHT22;11653;50.848;4.584;2023-07-31T10:42:36;23.40;99.90
22974;DHT22;11653;50.848;4.584;2023-07-31T10:45:05;23.60;99.90
22974;DHT22;11653;50.848;4.584;2023-07-31T10:47:36;23.70;99.90
22974;DHT22;11653;50.848;4.584;2023-07-31T10:50:17;23.60;99.90
22974;DHT22;11653;50.848;4.584;2023-07-31T10:52:52;23.40;99.90
22974;DHT22;11653;50.848;4.584;2023-07-31T10:57:50;22.70;99.90
22974;DHT22;11653;50.848;4.584;2023-07-31T11:00:26;22.50;99.90
22974;DHT22;11653;50.848;4.584;2023-07-31T11:03:06;22.40;99.90
22974;DHT22;11653;50.848;4.584;2023-07-31T11:05:52;22.20;99.90
22974;DHT22;11653;50.848;4.584;2023-07-31T11:10:49;22.30;99.90
22974;DHT22;11653;50.848;4.584;2023-07-31T11:13:14;22.30;99.90
22974;DHT22;11653;50.848;4.584;2023-07-31T11:15:40;22.40;99.90
22974;DHT22;11653;50.848;4.584;2023-07-31T11:18:06;22.40;99.90
22974;DHT22;11653;50.848;4.584;2023-07-31T11:20:34;22.50;99.90
22974;DHT22;11653;50.848;4.584;2023-07-31T11:23:06;22.50;99.90
22974;DHT22;11653;50.848;4.584;2023-07-31T11:25:33;22.50;99.90
22974;DHT22;11653;50.848;4.584;2023-07-31T11:28:08;22.50;99.90
22974;DHT22;11653;50.848;4.584;2023-07-31T11:30:34;22.60;99.90
22974;DHT22;11653;50.848;4.584;2023-07-31T11:33:04;22.60;99.90
22974;DHT22;11653;50.848;4.584;2023-07-31T11:35:35;22.60;99.90
22974;DHT22;11653;50.848;4.584;2023-07-31T11:38:01;22.60;99.90
22974;DHT22;11653;50.848;4.584;2023-07-31T11:40:27;22.90;99.90
22974;DHT22;11653;50.848;4.584;2023-07-31T11:42:57;22.90;99.90
22974;DHT22;11653;50.848;4.584;2023-07-31T11:45:25;23.10;99.90
22974;DHT22;11653;50.848;4.584;2023-07-31T11:47:54;23.20;99.90
22974;DHT22;11653;50.848;4.584;2023-07-31T11:50:20;23.30;99.90
22974;DHT22;11653;50.848;4.584;2023-07-31T11:52:47;23.50;99.90
22974;DHT22;11653;50.848;4.584;2023-07-31T11:55:14;23.40;99.90
22974;DHT22;11653;50.848;4.584;2023-07-31T11:57:41;23.40;99.90
22974;DHT22;11653;50.848;4.584;2023-07-31T12:00:10;23.20;99.90
22974;DHT22;11653;50.848;4.584;2023-07-31T12:02:38;23.00;99.90
22974;DHT22;11653;50.848;4.584;2023-07-31T12:05:15;23.00;99.90
22974;DHT22;11653;50.848;4.584;2023-07-31T12:07:51;23.10;99.90
22974;DHT22;11653;50.848;4.584;2023-07-31T12:10:29;23.20;99.90
22974;DHT22;11653;50.848;4.584;2023-07-31T12:13:09;23.00;99.90
22974;DHT22;11653;50.848;4.584;2023-07-31T12:15:43;22.90;99.90
22974;DHT22;11653;50.848;4.584;2023-07-31T12:18:14;22.90;99.90
22974;DHT22;11653;50.848;4.584;2023-07-31T12:20:45;23.10;99.90
22974;DHT22;11653;50.848;4.584;2023-07-31T12:23:21;23.10;99.90
22974;DHT22;11653;50.848;4.584;2023-07-31T12:26:06;23.10;99.90
22974;DHT22;11653;50.848;4.584;2023-07-31T12:31:17;23.20;99.90
22974;DHT22;11653;50.848;4.584;2023-07-31T12:33:44;23.30;99.90
22974;DHT22;11653;50.848;4.584;2023-07-31T12:36:12;23.20;99.90
22974;DHT22;11653;50.848;4.584;2023-07-31T12:38:38;23.10;99.90
22974;DHT22;11653;50.848;4.584;2023-07-31T12:41:04;23.10;99.90
22974;DHT22;11653;50.848;4.584;2023-07-31T12:43:35;23.20;99.90
22974;DHT22;11653;50.848;4.584;2023-07-31T12:46:01;23.20;99.90
22974;DHT22;11653;50.848;4.584;2023-07-31T12:48:27;23.20;99.90
22974;DHT22;11653;50.848;4.584;2023-07-31T12:50:53;23.00;99.90
22974;DHT22;11653;50.848;4.584;2023-07-31T12:53:18;23.00;99.90
22974;DHT22;11653;50.848;4.584;2023-07-31T12:55:44;23.00;99.90
22974;DHT22;11653;50.848;4.584;2023-07-31T12:58:10;22.70;99.90
22974;DHT22;11653;50.848;4.584;2023-07-31T13:00:39;22.50;99.90
22974;DHT22;11653;50.848;4.584;2023-07-31T13:03:04;22.40;99.90
22974;DHT22;11653;50.848;4.584;2023-07-31T13:05:30;22.30;99.90
22974;DHT22;11653;50.848;4.584;2023-07-31T13:07:56;22.40;99.90
22974;DHT22;11653;50.848;4.584;2023-07-31T13:10:23;22.50;99.90
22974;DHT22;11653;50.848;4.584;2023-07-31T13:12:48;22.60;99.90
22974;DHT22;11653;50.848;4.584;2023-07-31T13:15:14;22.80;99.90
22974;DHT22;11653;50.848;4.584;2023-07-31T13:17:40;22.80;99.90
22974;DHT22;11653;50.848;4.584;2023-07-31T13:20:06;22.70;99.90
22974;DHT22;11653;50.848;4.584;2023-07-31T13:22:32;22.60;99.90
22974;DHT22;11653;50.848;4.584;2023-07-31T13:24:57;22.50;99.90
22974;DHT22;11653;50.848;4.584;2023-07-31T13:27:23;22.30;99.90
22974;DHT22;11653;50.848;4.584;2023-07-31T13:29:51;22.10;99.90
22974;DHT22;11653;50.848;4.584;2023-07-31T13:32:17;22.00;99.90
22974;DHT22;11653;50.848;4.584;2023-07-31T13:34:43;22.00;99.90
22974;DHT22;11653;50.848;4.584;2023-07-31T13:37:09;22.00;99.90
22974;DHT22;11653;50.848;4.584;2023-07-31T13:39:35;22.00;99.90
22974;DHT22;11653;50.848;4.584;2023-07-31T13:42:03;22.00;99.90
22974;DHT22;11653;50.848;4.584;2023-07-31T13:44:32;21.90;99.90
22974;DHT22;11653;50.848;4.584;2023-07-31T13:46:57;21.80;99.90
22974;DHT22;11653;50.848;4.584;2023-07-31T13:49:23;21.60;99.90
22974;DHT22;11653;50.848;4.584;2023-07-31T13:51:50;21.50;99.90
22974;DHT22;11653;50.848;4.584;2023-07-31T13:54:15;21.30;99.90
22974;DHT22;11653;50.848;4.584;2023-07-31T13:56:42;20.90;99.90
22974;DHT22;11653;50.848;4.584;2023-07-31T13:59:08;20.90;99.90
22974;DHT22;11653;50.848;4.584;2023-07-31T14:01:33;21.00;99.90
22974;DHT22;11653;50.848;4.584;2023-07-31T14:03:59;21.00;99.90
22974;DHT22;11653;50.848;4.584;2023-07-31T14:06:24;21.00;99.90
22974;DHT22;11653;50.848;4.584;2023-07-31T14:08:50;20.90;99.90
22974;DHT22;11653;50.848;4.584;2023-07-31T14:11:16;20.90;99.90
22974;DHT22;11653;50.848;4.584;2023-07-31T14:13:41;20.90;99.90
22974;DHT22;11653;50.848;4.584;2023-07-31T14:16:07;20.80;99.90
22974;DHT22;11653;50.848;4.584;2023-07-31T14:18:33;20.90;99.90
22974;DHT22;11653;50.848;4.584;2023-07-31T14:20:58;21.00;99.90
22974;DHT22;11653;50.848;4.584;2023-07-31T14:23:24;20.90;99.90
22974;DHT22;11653;50.848;4.584;2023-07-31T14:25:49;20.80;99.90
22974;DHT22;11653;50.848;4.584;2023-07-31T14:28:15;20.70;99.90
22974;DHT22;11653;50.848;4.584;2023-07-31T14:30:41;20.70;99.90
22974;DHT22;11653;50.848;4.584;2023-07-31T14:33:07;20.70;99.90
22974;DHT22;11653;50.848;4.584;2023-07-31T14:35:34;20.70;99.90
22974;DHT22;11653;50.848;4.584;2023-07-31T14:37:59;20.80;99.90
22974;DHT22;11653;50.848;4.584;2023-07-31T14:40:25;20.90;99.90
22974;DHT22;11653;50.848;4.584;2023-07-31T14:42:51;21.00;99.90
22974;DHT22;11653;50.848;4.584;2023-07-31T14:45:16;21.10;99.90
22974;DHT22;11653;50.848;4.584;2023-07-31T14:47:42;21.10;99.90
22974;DHT22;11653;50.848;4.584;2023-07-31T14:50:08;21.10;99.90
22974;DHT22;11653;50.848;4.584;2023-07-31T14:52:34;21.00;99.90
22974;DHT22;11653;50.848;4.584;2023-07-31T14:54:59;21.00;99.90
22974;DHT22;11653;50.848;4.584;2023-07-31T14:57:25;21.00;99.90
22974;DHT22;11653;50.848;4.584;2023-07-31T14:59:51;21.00;99.90
22974;DHT22;11653;50.848;4.584;2023-07-31T15:02:16;21.00;99.90
22974;DHT22;11653;50.848;4.584;2023-07-31T15:04:42;21.00;99.90
22974;DHT22;11653;50.848;4.584;2023-07-31T15:07:07;20.80;99.90
22974;DHT22;11653;50.848;4.584;2023-07-31T15:09:33;20.80;99.90
22974;DHT22;11653;50.848;4.584;2023-07-31T15:11:59;20.60;99.90
22974;DHT22;11653;50.848;4.584;2023-07-31T15:14:25;20.50;99.90
22974;DHT22;11653;50.848;4.584;2023-07-31T15:16:52;20.50;99.90
22974;DHT22;11653;50.848;4.584;2023-07-31T15:19:18;20.50;99.90
22974;DHT22;11653;50.848;4.584;2023-07-31T15:21:44;20.30;99.90
22974;DHT22;11653;50.848;4.584;2023-07-31T15:24:09;20.30;99.90
22974;DHT22;11653;50.848;4.584;2023-07-31T15:26:37;20.30;99.90
22974;DHT22;11653;50.848;4.584;2023-07-31T15:29:04;20.20;99.90
22974;DHT22;11653;50.848;4.584;2023-07-31T15:31:43;20.20;99.90
22974;DHT22;11653;50.848;4.584;2023-07-31T15:34:09;20.20;99.90
22974;DHT22;11653;50.848;4.584;2023-07-31T15:36:34;20.20;99.90
22974;DHT22;11653;50.848;4.584;2023-07-31T15:39:00;20.40;99.90
22974;DHT22;11653;50.848;4.584;2023-07-31T15:41:26;20.30;99.90
22974;DHT22;11653;50.848;4.584;2023-07-31T15:43:51;20.30;99.90
22974;DHT22;11653;50.848;4.584;2023-07-31T15:46:18;20.40;99.90